createdAt,value
2017-06-17T00:01:13.396Z,5.57
2017-06-17T00:03:42.451Z,5.00
2017-06-17T00:06:10.728Z,4.53
2017-06-17T00:08:38.997Z,4.80
2017-06-17T00:11:07.356Z,5.33
2017-06-17T00:13:35.737Z,5.40
2017-06-17T00:16:03.992Z,5.10
2017-06-17T00:18:32.302Z,4.83
2017-06-17T00:21:00.556Z,4.97
2017-06-17T00:23:28.938Z,4.40
2017-06-17T00:25:57.222Z,5.40
2017-06-17T00:28:25.516Z,5.60
2017-06-17T00:30:53.874Z,5.37
2017-06-17T00:33:22.137Z,5.40
2017-06-17T00:35:50.445Z,5.03
2017-06-17T00:38:18.709Z,4.47
2017-06-17T00:40:46.989Z,4.67
2017-06-17T00:43:15.360Z,5.10
2017-06-17T00:45:43.642Z,4.63
2017-06-17T00:48:11.944Z,5.30
2017-06-17T00:50:40.298Z,5.37
2017-06-17T00:53:08.681Z,6.10
2017-06-17T00:55:37.053Z,6.53
2017-06-17T00:58:05.320Z,5.60
2017-06-17T01:00:33.639Z,5.30
2017-06-17T01:03:02.691Z,6.07
2017-06-17T01:05:30.983Z,5.30
2017-06-17T01:07:59.273Z,5.63
2017-06-17T01:10:27.641Z,5.20
2017-06-17T01:12:56.032Z,5.57
2017-06-17T01:15:24.313Z,5.63
2017-06-17T01:17:52.684Z,6.00
2017-06-17T01:20:21.057Z,5.67
2017-06-17T01:22:49.332Z,6.40
2017-06-17T01:25:17.729Z,5.00
2017-06-17T01:27:46.092Z,6.20
2017-06-17T01:30:14.374Z,5.97
2017-06-17T01:32:42.761Z,5.00
2017-06-17T01:35:11.028Z,5.90
2017-06-17T01:37:39.406Z,5.03
2017-06-17T01:40:07.667Z,4.37
2017-06-17T01:42:36.758Z,4.53
2017-06-17T01:45:05.802Z,5.07
2017-06-17T01:47:34.065Z,4.93
2017-06-17T01:50:02.385Z,3.87
2017-06-17T01:52:30.662Z,4.87
2017-06-17T01:54:58.938Z,4.80
2017-06-17T01:57:27.317Z,5.77
2017-06-17T01:59:55.572Z,5.03
2017-06-17T02:02:23.864Z,4.00
2017-06-17T02:04:52.134Z,4.47
2017-06-17T02:07:20.416Z,4.67
2017-06-17T02:09:48.693Z,4.30
2017-06-17T02:12:16.953Z,3.90
2017-06-17T02:14:45.260Z,4.80
2017-06-17T02:17:13.620Z,4.30
2017-06-17T02:19:41.903Z,4.00
2017-06-17T02:22:10.294Z,4.67
2017-06-17T02:24:38.656Z,4.40
2017-06-17T02:27:07.040Z,3.90
2017-06-17T02:29:35.302Z,3.93
2017-06-17T02:32:03.608Z,4.00
2017-06-17T02:34:31.973Z,5.30
2017-06-17T02:37:00.251Z,4.10
2017-06-17T02:39:28.625Z,4.37
2017-06-17T02:41:56.959Z,4.30
2017-06-17T02:44:25.222Z,4.67
2017-06-17T02:46:53.613Z,3.73
2017-06-17T02:49:21.877Z,4.40
2017-06-17T02:51:50.250Z,3.50
2017-06-17T02:54:18.546Z,3.57
2017-06-17T02:56:46.808Z,4.03
2017-06-17T02:59:15.195Z,3.73
2017-06-17T03:01:43.476Z,2.97
2017-06-17T03:04:11.868Z,3.90
2017-06-17T03:06:40.197Z,3.90
2017-06-17T03:09:08.472Z,3.50
2017-06-17T03:11:36.866Z,3.87
2017-06-17T03:14:05.231Z,3.33
2017-06-17T03:16:33.534Z,3.77
2017-06-17T03:19:01.989Z,3.37
2017-06-17T03:21:30.264Z,4.40
2017-06-17T03:23:58.647Z,3.50
2017-06-17T03:26:26.922Z,3.53
2017-06-17T03:28:55.349Z,3.60
2017-06-17T03:31:23.609Z,3.53
2017-06-17T03:33:52.671Z,3.70
2017-06-17T03:36:21.054Z,3.90
2017-06-17T03:38:49.328Z,4.10
2017-06-17T03:41:17.746Z,3.40
2017-06-17T03:43:46.784Z,3.60
2017-06-17T03:46:15.081Z,3.60
2017-06-17T03:48:43.352Z,4.00
2017-06-17T03:51:11.633Z,4.40
2017-06-17T03:53:39.961Z,3.27
2017-06-17T03:56:08.225Z,4.30
2017-06-17T03:58:37.282Z,4.00
2017-06-17T04:01:05.548Z,3.53
2017-06-17T04:03:33.831Z,3.27
2017-06-17T04:06:02.223Z,4.63
2017-06-17T04:08:30.595Z,5.20
2017-06-17T04:10:58.903Z,4.43
2017-06-17T04:13:27.164Z,3.83
2017-06-17T04:15:55.440Z,3.87
2017-06-17T04:18:23.722Z,4.13
2017-06-17T04:20:52.008Z,4.10
2017-06-17T04:23:21.182Z,4.50
2017-06-17T04:25:49.455Z,4.20
2017-06-17T04:28:17.785Z,4.07
2017-06-17T04:30:46.118Z,4.70
2017-06-17T04:33:14.380Z,4.53
2017-06-17T04:35:42.692Z,3.73
2017-06-17T04:38:11.768Z,4.10
2017-06-17T04:40:40.038Z,3.53
2017-06-17T04:43:08.372Z,3.27
2017-06-17T04:45:36.791Z,3.53
2017-06-17T04:48:05.076Z,4.37
2017-06-17T04:50:33.336Z,4.30
2017-06-17T04:53:01.652Z,3.87
2017-06-17T04:55:30.718Z,4.50
2017-06-17T04:57:58.975Z,4.20
2017-06-17T05:00:27.262Z,4.43
2017-06-17T05:02:55.560Z,4.70
2017-06-17T05:05:23.946Z,4.10
2017-06-17T05:07:52.230Z,4.60
2017-06-17T05:10:20.600Z,4.13
2017-06-17T05:12:48.886Z,3.70
2017-06-17T05:15:17.241Z,3.80
2017-06-17T05:17:45.536Z,4.47
2017-06-17T05:20:13.800Z,4.57
2017-06-17T05:22:42.179Z,3.90
2017-06-17T05:25:10.466Z,3.70
2017-06-17T05:27:38.751Z,4.20
2017-06-17T05:30:07.130Z,3.77
2017-06-17T05:32:35.508Z,3.90
2017-06-17T05:35:03.888Z,4.27
2017-06-17T05:37:32.173Z,3.67
2017-06-17T05:40:00.431Z,4.03
2017-06-17T05:42:28.809Z,3.23
2017-06-17T05:44:57.092Z,3.87
2017-06-17T05:47:25.476Z,3.80
2017-06-17T05:49:53.739Z,3.40
2017-06-17T05:52:22.036Z,3.10
2017-06-17T05:54:50.409Z,3.90
2017-06-17T05:57:18.660Z,3.50
2017-06-17T05:59:46.986Z,3.50
2017-06-17T06:02:16.043Z,3.13
2017-06-17T06:04:44.320Z,3.40
2017-06-17T06:07:12.716Z,3.50
2017-06-17T06:09:40.973Z,3.50
2017-06-17T06:12:09.262Z,4.07
2017-06-17T06:14:37.534Z,3.67
2017-06-17T06:17:05.913Z,3.70
2017-06-17T06:19:34.189Z,3.63
2017-06-17T06:22:02.569Z,4.13
2017-06-17T06:24:30.848Z,3.60
2017-06-17T06:26:59.108Z,4.07
2017-06-17T06:29:27.396Z,3.57
2017-06-17T06:31:55.661Z,2.70
2017-06-17T06:34:24.054Z,3.57
2017-06-17T06:36:52.317Z,3.23
2017-06-17T06:39:20.613Z,4.10
2017-06-17T06:41:48.896Z,3.60
2017-06-17T06:44:18.057Z,3.60
2017-06-17T06:46:46.377Z,3.03
2017-06-17T06:49:14.823Z,3.80
2017-06-17T06:51:43.085Z,3.47
2017-06-17T06:54:11.417Z,2.97
2017-06-17T06:56:39.692Z,3.70
2017-06-17T06:59:08.071Z,2.70
2017-06-17T07:01:36.387Z,3.53
2017-06-17T07:04:04.660Z,3.47
2017-06-17T07:06:32.938Z,3.00
2017-06-17T07:09:01.196Z,3.00
2017-06-17T07:11:29.610Z,3.37
2017-06-17T07:13:57.887Z,2.73
2017-06-17T07:16:26.264Z,2.60
2017-06-17T07:18:54.746Z,2.60
2017-06-17T07:21:23.034Z,2.27
2017-06-17T07:23:51.394Z,2.20
2017-06-17T07:26:19.671Z,3.33
2017-06-17T07:28:47.924Z,2.60
2017-06-17T07:31:16.284Z,2.50
2017-06-17T07:33:44.573Z,2.30
2017-06-17T07:36:12.868Z,2.40
2017-06-17T07:38:41.144Z,2.70
2017-06-17T07:41:09.535Z,3.30
2017-06-17T07:43:37.797Z,3.20
2017-06-17T07:46:06.047Z,2.70
2017-06-17T07:48:34.361Z,2.70
2017-06-17T07:51:02.627Z,2.67
2017-06-17T07:53:30.932Z,3.10
2017-06-17T07:55:59.217Z,3.20
2017-06-17T07:58:27.483Z,2.80
2017-06-17T08:00:55.866Z,2.50
2017-06-17T08:03:24.154Z,3.03
2017-06-17T08:05:52.480Z,2.87
2017-06-17T08:08:20.788Z,3.33
2017-06-17T08:10:49.175Z,2.83
2017-06-17T08:13:17.568Z,3.20
2017-06-17T08:15:45.821Z,3.40
2017-06-17T08:18:14.105Z,2.63
2017-06-17T08:20:42.524Z,2.73
2017-06-17T08:23:10.848Z,3.17
2017-06-17T08:25:39.880Z,2.77
2017-06-17T08:28:08.197Z,3.00
2017-06-17T08:30:36.573Z,3.17
2017-06-17T08:33:04.825Z,2.90
2017-06-17T08:35:33.099Z,3.10
2017-06-17T08:38:01.409Z,2.87
2017-06-17T08:40:29.676Z,3.10
2017-06-17T08:42:58.063Z,3.30
2017-06-17T08:45:26.441Z,2.17
2017-06-17T08:47:54.804Z,2.50
2017-06-17T08:50:23.088Z,2.20
2017-06-17T08:52:51.354Z,3.17
2017-06-17T08:55:19.754Z,2.30
2017-06-17T08:57:48.008Z,3.17
2017-06-17T09:00:16.269Z,2.73
2017-06-17T09:02:44.595Z,2.73
2017-06-17T09:05:12.864Z,2.27
2017-06-17T09:07:41.167Z,2.80
2017-06-17T09:10:10.232Z,2.60
2017-06-17T09:12:38.490Z,2.53
2017-06-17T09:15:06.793Z,3.40
2017-06-17T09:17:35.056Z,2.47
2017-06-17T09:20:04.051Z,2.63
2017-06-17T09:22:32.326Z,2.30
2017-06-17T09:25:00.592Z,2.43
2017-06-17T09:27:28.876Z,2.43
2017-06-17T09:29:57.150Z,3.87
2017-06-17T09:32:25.532Z,2.60
2017-06-17T09:34:53.830Z,2.53
2017-06-17T09:37:22.100Z,3.13
2017-06-17T09:39:50.384Z,2.93
2017-06-17T09:42:18.737Z,2.80
2017-06-17T09:44:47.073Z,2.73
2017-06-17T09:47:15.405Z,2.20
2017-06-17T09:49:43.689Z,2.20
2017-06-17T09:52:12.067Z,2.80
2017-06-17T09:54:40.454Z,2.63
2017-06-17T09:57:08.792Z,2.40
2017-06-17T09:59:37.092Z,2.57
2017-06-17T10:02:05.350Z,2.50
2017-06-17T10:04:33.656Z,2.43
2017-06-17T10:07:02.013Z,2.50
2017-06-17T10:09:30.396Z,2.47
2017-06-17T10:11:58.721Z,2.50
2017-06-17T10:14:27.078Z,2.37
2017-06-17T10:16:56.127Z,2.50
2017-06-17T10:19:24.380Z,2.50
2017-06-17T10:21:52.700Z,2.50
2017-06-17T10:24:20.981Z,2.57
2017-06-17T10:26:49.253Z,2.20
2017-06-17T10:29:17.541Z,2.10
2017-06-17T10:31:45.807Z,3.20
2017-06-17T10:34:14.191Z,2.67
2017-06-17T10:36:42.449Z,2.50
2017-06-17T10:39:10.713Z,2.43
2017-06-17T10:41:38.990Z,3.80
2017-06-17T10:44:07.259Z,2.97
2017-06-17T10:46:35.677Z,2.40
2017-06-17T10:49:03.944Z,2.70
2017-06-17T10:51:32.240Z,3.10
2017-06-17T10:54:00.526Z,2.47
2017-06-17T10:56:28.898Z,2.27
2017-06-17T10:58:57.277Z,2.47
2017-06-17T11:01:25.665Z,2.60
2017-06-17T11:03:54.020Z,2.50
2017-06-17T11:06:22.403Z,3.67
2017-06-17T11:08:50.665Z,2.77
2017-06-17T11:11:19.040Z,2.87
2017-06-17T11:13:47.327Z,2.70
2017-06-17T11:16:15.564Z,2.87
2017-06-17T11:18:43.840Z,2.67
2017-06-17T11:21:12.163Z,2.47
2017-06-17T11:23:40.543Z,2.47
2017-06-17T11:26:08.796Z,2.53
2017-06-17T11:28:37.058Z,2.57
2017-06-17T11:31:05.388Z,2.40
2017-06-17T11:33:33.766Z,2.50
2017-06-17T11:36:02.081Z,3.57
2017-06-17T11:38:30.348Z,3.10
2017-06-17T11:40:59.414Z,2.83
2017-06-17T11:43:27.693Z,2.83
2017-06-17T11:45:55.958Z,2.57
2017-06-17T11:48:24.339Z,2.70
2017-06-17T11:50:52.599Z,2.90
2017-06-17T11:53:20.877Z,3.13
2017-06-17T11:55:49.178Z,2.63
2017-06-17T11:58:17.437Z,2.50
2017-06-17T12:00:45.744Z,2.77
2017-06-17T12:03:14.811Z,2.70
2017-06-17T12:05:43.074Z,3.13
2017-06-17T12:08:11.374Z,3.40
2017-06-17T12:10:39.653Z,3.10
2017-06-17T12:13:08.020Z,2.80
2017-06-17T12:15:36.290Z,2.57
2017-06-17T12:18:04.673Z,2.27
2017-06-17T12:20:33.062Z,2.50
2017-06-17T12:23:01.313Z,2.53
2017-06-17T12:25:29.680Z,2.40
2017-06-17T12:27:57.999Z,3.00
2017-06-17T12:30:26.265Z,2.97
2017-06-17T12:32:54.636Z,2.13
2017-06-17T12:35:22.977Z,2.13
2017-06-17T12:37:51.359Z,2.10
2017-06-17T12:40:19.633Z,2.77
2017-06-17T12:42:47.903Z,2.30
2017-06-17T12:45:16.195Z,2.90
2017-06-17T12:47:44.472Z,1.97
2017-06-17T12:50:12.842Z,2.53
2017-06-17T12:52:41.134Z,2.20
2017-06-17T12:55:09.397Z,2.07
2017-06-17T12:57:37.689Z,2.20
2017-06-17T13:00:05.966Z,2.37
2017-06-17T13:02:34.263Z,2.50
2017-06-17T13:05:03.286Z,1.87
2017-06-17T13:07:32.542Z,2.47
2017-06-17T13:10:00.828Z,1.97
2017-06-17T13:12:29.114Z,2.00
2017-06-17T13:14:57.426Z,2.13
2017-06-17T13:17:26.674Z,2.30
2017-06-17T13:19:54.951Z,2.40
2017-06-17T13:22:23.248Z,2.53
2017-06-17T13:24:51.514Z,1.83
2017-06-17T13:27:19.878Z,2.47
2017-06-17T13:29:48.143Z,2.20
2017-06-17T13:32:16.403Z,2.00
2017-06-17T13:34:44.720Z,2.50
2017-06-17T13:37:13.000Z,2.20
2017-06-17T13:39:41.317Z,2.10
2017-06-17T13:42:10.409Z,1.87
2017-06-17T13:44:38.763Z,2.43
2017-06-17T13:47:07.247Z,2.30
2017-06-17T13:49:35.488Z,2.50
2017-06-17T13:52:03.807Z,1.70
2017-06-17T13:54:32.085Z,2.33
2017-06-17T13:57:00.387Z,1.97
2017-06-17T13:59:28.669Z,2.03
2017-06-17T14:01:57.689Z,2.07
2017-06-17T14:04:26.028Z,1.70
2017-06-17T14:06:54.293Z,2.33
2017-06-17T14:09:22.570Z,2.10
2017-06-17T14:11:50.859Z,2.20
2017-06-17T14:14:19.128Z,2.10
2017-06-17T14:16:47.461Z,2.00
2017-06-17T14:19:16.140Z,2.23
2017-06-17T14:22:03.188Z,2.50
2017-06-17T14:24:31.543Z,2.00
2017-06-17T14:26:59.834Z,2.30
2017-06-17T14:29:28.132Z,1.63
2017-06-17T14:31:57.194Z,2.07
2017-06-17T14:34:25.469Z,1.90
2017-06-17T14:36:53.753Z,1.87
2017-06-17T14:39:22.032Z,1.50
2017-06-17T14:41:50.397Z,1.87
2017-06-17T14:44:18.873Z,1.97
2017-06-17T14:46:47.156Z,1.77
2017-06-17T14:49:15.469Z,2.03
2017-06-17T14:51:44.502Z,2.80
2017-06-17T14:54:12.803Z,2.77
2017-06-17T14:56:41.088Z,2.60
2017-06-17T14:59:09.460Z,2.33
2017-06-17T15:01:37.745Z,2.63
2017-06-17T15:04:06.014Z,1.90
2017-06-17T15:06:34.404Z,2.73
2017-06-17T15:09:02.661Z,2.27
2017-06-17T15:11:31.045Z,2.20
2017-06-17T15:13:59.333Z,2.37
2017-06-17T15:16:27.592Z,2.10
2017-06-17T15:18:55.860Z,3.03
2017-06-17T15:21:24.167Z,2.80
2017-06-17T15:23:52.463Z,2.23
2017-06-17T15:26:21.529Z,2.00
2017-06-17T15:28:49.805Z,2.13
2017-06-17T15:31:18.085Z,2.20
2017-06-17T15:33:46.352Z,2.03
2017-06-17T15:36:14.628Z,2.17
2017-06-17T15:38:42.904Z,2.13
2017-06-17T15:41:11.195Z,2.07
2017-06-17T15:43:39.492Z,2.43
2017-06-17T15:46:07.779Z,2.63
2017-06-17T15:48:36.840Z,1.80
2017-06-17T15:51:05.114Z,1.93
2017-06-17T15:53:33.499Z,1.80
2017-06-17T15:56:01.798Z,1.93
2017-06-17T15:58:30.060Z,2.37
2017-06-17T16:00:58.466Z,2.47
2017-06-17T16:03:27.536Z,2.37
2017-06-17T16:05:55.796Z,2.10
2017-06-17T16:08:24.085Z,2.03
2017-06-17T16:10:52.485Z,2.47
2017-06-17T16:13:21.513Z,2.20
2017-06-17T16:15:49.839Z,2.60
2017-06-17T16:18:18.103Z,1.73
2017-06-17T16:20:46.487Z,2.60
2017-06-17T16:23:14.769Z,2.17
2017-06-17T16:25:43.120Z,2.27
2017-06-17T16:28:11.424Z,2.60
2017-06-17T16:30:39.701Z,2.37
2017-06-17T16:33:07.986Z,2.00
2017-06-17T16:35:36.357Z,2.80
2017-06-17T16:38:04.732Z,2.20
2017-06-17T16:40:33.003Z,2.03
2017-06-17T16:43:01.301Z,2.10
2017-06-17T16:45:29.599Z,2.33
2017-06-17T16:47:58.625Z,2.47
2017-06-17T16:50:26.941Z,1.80
2017-06-17T16:52:55.230Z,2.17
2017-06-17T16:55:23.523Z,2.10
2017-06-17T16:57:51.783Z,2.50
2017-06-17T17:00:20.049Z,1.73
2017-06-17T17:02:48.424Z,2.43
2017-06-17T17:05:16.690Z,2.33
2017-06-17T17:07:44.979Z,2.33
2017-06-17T17:10:13.258Z,2.40
2017-06-17T17:12:41.567Z,2.47
2017-06-17T17:15:10.637Z,2.10
2017-06-17T17:17:39.112Z,3.70
2017-06-17T17:20:07.498Z,2.50
2017-06-17T17:22:35.780Z,2.47
2017-06-17T17:25:04.077Z,2.40
2017-06-17T17:27:33.101Z,1.90
2017-06-17T17:30:03.482Z,2.30
2017-06-17T17:32:31.842Z,2.40
2017-06-17T17:35:00.104Z,2.40
2017-06-17T17:37:28.384Z,2.70
2017-06-17T17:39:56.647Z,2.80
2017-06-17T17:42:25.053Z,2.77
2017-06-17T17:44:53.358Z,2.50
2017-06-17T17:47:22.438Z,2.57
2017-06-17T17:49:50.831Z,2.57
2017-06-17T17:52:19.865Z,2.80
2017-06-17T17:54:48.137Z,3.73
2017-06-17T17:57:16.455Z,3.90
2017-06-17T17:59:44.738Z,3.40
2017-06-17T18:02:13.044Z,4.10
2017-06-17T18:04:42.204Z,5.20
2017-06-17T18:07:10.460Z,5.60
2017-06-17T18:09:38.760Z,6.70
2017-06-17T18:12:07.048Z,16.77
2017-06-17T18:14:35.325Z,11.63
2017-06-17T18:17:03.706Z,8.73
2017-06-17T18:19:31.981Z,9.10
2017-06-17T18:22:00.280Z,11.10
2017-06-17T18:24:29.308Z,6.63
2017-06-17T18:26:57.640Z,3.27
2017-06-17T18:29:25.916Z,6.10
2017-06-17T18:31:54.313Z,4.07
2017-06-17T18:34:23.346Z,8.50
2017-06-17T18:36:51.623Z,4.07
2017-06-17T18:39:19.925Z,7.70
2017-06-17T18:41:48.196Z,5.70
2017-06-17T18:44:16.469Z,3.97
2017-06-17T18:46:44.749Z,8.87
2017-06-17T18:49:13.027Z,5.43
2017-06-17T18:51:41.310Z,8.97
2017-06-17T18:54:09.562Z,3.47
2017-06-17T18:56:37.877Z,3.93
2017-06-17T18:59:06.140Z,3.50
2017-06-17T19:01:34.412Z,6.00
2017-06-17T19:04:02.692Z,4.87
2017-06-17T19:06:30.970Z,4.13
2017-06-17T19:08:59.277Z,3.63
2017-06-17T19:11:27.648Z,4.13
2017-06-17T19:13:56.725Z,4.90
2017-06-17T19:16:24.974Z,4.60
2017-06-17T19:18:53.233Z,4.80
2017-06-17T19:21:21.547Z,5.13
2017-06-17T19:23:49.807Z,5.40
2017-06-17T19:26:18.129Z,3.70
2017-06-17T19:28:47.196Z,4.83
2017-06-17T19:31:15.574Z,4.17
2017-06-17T19:33:43.852Z,3.60
2017-06-17T19:36:12.165Z,4.20
2017-06-17T19:38:41.209Z,3.90
2017-06-17T19:41:09.461Z,4.50
2017-06-17T19:43:37.778Z,4.30
2017-06-17T19:46:06.054Z,3.43
2017-06-17T19:48:34.438Z,3.57
2017-06-17T19:51:02.766Z,4.30
2017-06-17T19:53:31.096Z,3.50
2017-06-17T19:55:59.369Z,4.27
2017-06-17T19:58:27.644Z,8.53
2017-06-17T20:00:56.024Z,6.20
2017-06-17T20:03:24.293Z,5.70
2017-06-17T20:05:52.676Z,5.53
2017-06-17T20:08:20.948Z,7.23
2017-06-17T20:10:49.336Z,5.10
2017-06-17T20:13:17.601Z,4.30
2017-06-17T20:15:45.888Z,4.43
2017-06-17T20:18:14.174Z,3.70
2017-06-17T20:20:42.476Z,4.33
2017-06-17T20:23:11.525Z,4.10
2017-06-17T20:25:39.785Z,4.60
2017-06-17T20:28:08.197Z,4.77
2017-06-17T20:30:36.483Z,5.13
2017-06-17T20:33:04.861Z,4.90
2017-06-17T20:35:33.226Z,4.80
2017-06-17T20:38:01.545Z,6.30
2017-06-17T20:40:30.633Z,6.70
2017-06-17T20:42:59.018Z,7.03
2017-06-17T20:45:28.084Z,4.87
2017-06-17T20:47:56.358Z,5.30
2017-06-17T20:50:24.648Z,5.27
2017-06-17T20:52:52.944Z,5.63
2017-06-17T20:55:21.212Z,5.23
2017-06-17T20:57:49.502Z,6.40
2017-06-17T21:00:17.806Z,5.77
2017-06-17T21:02:46.066Z,5.73
2017-06-17T21:05:14.464Z,5.30
2017-06-17T21:07:42.838Z,5.10
2017-06-17T21:10:11.228Z,5.47
2017-06-17T21:12:39.510Z,6.00
2017-06-17T21:15:07.868Z,6.10
2017-06-17T21:17:36.127Z,6.40
2017-06-17T21:20:04.451Z,5.83
2017-06-17T21:22:32.756Z,6.07
2017-06-17T21:25:01.021Z,5.50
2017-06-17T21:27:29.308Z,5.30
2017-06-17T21:29:57.572Z,5.17
2017-06-17T21:32:25.841Z,6.97
2017-06-17T21:34:54.130Z,4.80
2017-06-17T21:37:22.404Z,5.00
2017-06-17T21:39:50.782Z,5.10
2017-06-17T21:42:19.049Z,5.50
2017-06-17T21:44:47.315Z,5.23
2017-06-17T21:47:16.388Z,5.50
2017-06-17T21:49:44.663Z,5.50
2017-06-17T21:52:12.983Z,5.90
2017-06-17T21:54:42.028Z,7.80
2017-06-17T21:57:11.088Z,5.60
2017-06-17T21:59:39.368Z,5.60
2017-06-17T22:02:07.644Z,8.03
2017-06-17T22:04:36.015Z,6.30
2017-06-17T22:07:05.074Z,5.63
2017-06-17T22:09:33.390Z,5.47
2017-06-17T22:12:02.711Z,5.57
2017-06-17T22:14:31.082Z,6.20
2017-06-17T22:16:59.363Z,5.70
2017-06-17T22:19:27.638Z,5.93
2017-06-17T22:21:55.922Z,6.43
2017-06-17T22:24:24.177Z,6.40
2017-06-17T22:26:52.513Z,6.17
2017-06-17T22:29:20.799Z,6.47
2017-06-17T22:31:49.068Z,7.17
2017-06-17T22:34:17.370Z,7.03
2017-06-17T22:36:46.400Z,6.97
2017-06-17T22:39:14.708Z,5.60
2017-06-17T22:41:43.101Z,6.40
2017-06-17T22:44:11.370Z,5.17
2017-06-17T22:46:39.671Z,6.40
2017-06-17T22:49:07.951Z,7.80
2017-06-17T22:51:36.232Z,7.00
2017-06-17T22:54:05.332Z,6.83
2017-06-17T22:56:34.385Z,7.17
2017-06-17T22:59:02.664Z,6.83
2017-06-17T23:01:30.961Z,7.80
2017-06-17T23:03:59.235Z,7.47
2017-06-17T23:06:27.503Z,7.30
2017-06-17T23:08:55.894Z,6.80
2017-06-17T23:11:24.170Z,7.47
2017-06-17T23:13:52.548Z,7.40
2017-06-17T23:16:20.813Z,6.93
2017-06-17T23:18:49.092Z,6.17
2017-06-17T23:21:17.404Z,5.80
2017-06-17T23:23:45.652Z,6.00
2017-06-17T23:26:13.931Z,6.30
2017-06-17T23:28:42.201Z,6.10
2017-06-17T23:31:10.576Z,6.27
2017-06-17T23:33:38.865Z,6.60
2017-06-17T23:36:07.133Z,5.43
2017-06-17T23:38:35.508Z,5.70
2017-06-17T23:41:03.779Z,5.87
2017-06-17T23:43:32.061Z,5.50
2017-06-17T23:46:00.364Z,6.43
2017-06-17T23:48:28.728Z,6.27
2017-06-17T23:50:57.014Z,6.80
2017-06-17T23:53:25.298Z,6.10
2017-06-17T23:55:53.661Z,5.80
2017-06-17T23:58:21.980Z,6.53
